sensor_id;sensor_type;location;lat;lon;timestamp;P1;durP1;ratioP1;P2;durP2;ratioP2
60336;SDS011;46978;50.288;28.624;2023-12-14T00:01:13;7.94;;;3.31;;
60336;SDS011;46978;50.288;28.624;2023-12-14T00:02:14;5.97;;;2.54;;
60336;SDS011;46978;50.288;28.624;2023-12-14T00:03:16;4.79;;;2.30;;
60336;SDS011;46978;50.288;28.624;2023-12-14T00:04:18;5.69;;;2.99;;
60336;SDS011;46978;50.288;28.624;2023-12-14T00:05:19;5.95;;;3.14;;
60336;SDS011;46978;50.288;28.624;2023-12-14T00:06:22;5.78;;;2.94;;
60336;SDS011;46978;50.288;28.624;2023-12-14T00:07:24;3.93;;;2.11;;
60336;SDS011;46978;50.288;28.624;2023-12-14T00:08:25;5.56;;;2.38;;
60336;SDS011;46978;50.288;28.624;2023-12-14T00:09:27;3.82;;;2.12;;
60336;SDS011;46978;50.288;28.624;2023-12-14T00:10:30;4.56;;;2.54;;
60336;SDS011;46978;50.288;28.624;2023-12-14T00:11:31;4.63;;;2.27;;
60336;SDS011;46978;50.288;28.624;2023-12-14T00:12:33;5.42;;;2.59;;
60336;SDS011;46978;50.288;28.624;2023-12-14T00:13:35;4.62;;;2.24;;
60336;SDS011;46978;50.288;28.624;2023-12-14T00:14:36;6.02;;;3.02;;
60336;SDS011;46978;50.288;28.624;2023-12-14T00:15:38;6.30;;;2.64;;
60336;SDS011;46978;50.288;28.624;2023-12-14T00:16:40;5.43;;;2.65;;
60336;SDS011;46978;50.288;28.624;2023-12-14T00:17:41;6.13;;;2.89;;
60336;SDS011;46978;50.288;28.624;2023-12-14T00:18:43;5.87;;;2.75;;
60336;SDS011;46978;50.288;28.624;2023-12-14T00:19:45;6.46;;;3.13;;
60336;SDS011;46978;50.288;28.624;2023-12-14T00:20:47;5.43;;;2.69;;
60336;SDS011;46978;50.288;28.624;2023-12-14T00:21:48;5.15;;;2.61;;
60336;SDS011;46978;50.288;28.624;2023-12-14T00:22:50;6.11;;;2.94;;
60336;SDS011;46978;50.288;28.624;2023-12-14T00:23:51;8.55;;;3.64;;
60336;SDS011;46978;50.288;28.624;2023-12-14T00:24:53;10.03;;;3.94;;
60336;SDS011;46978;50.288;28.624;2023-12-14T00:25:55;12.26;;;4.77;;
60336;SDS011;46978;50.288;28.624;2023-12-14T00:26:57;9.35;;;4.10;;
60336;SDS011;46978;50.288;28.624;2023-12-14T00:27:58;3.77;;;1.83;;
60336;SDS011;46978;50.288;28.624;2023-12-14T00:29:00;3.95;;;1.93;;
60336;SDS011;46978;50.288;28.624;2023-12-14T00:30:02;4.99;;;2.46;;
60336;SDS011;46978;50.288;28.624;2023-12-14T00:31:04;3.23;;;1.86;;
60336;SDS011;46978;50.288;28.624;2023-12-14T00:32:06;4.42;;;2.08;;
60336;SDS011;46978;50.288;28.624;2023-12-14T00:33:08;3.71;;;1.96;;
60336;SDS011;46978;50.288;28.624;2023-12-14T00:34:09;3.32;;;1.84;;
60336;SDS011;46978;50.288;28.624;2023-12-14T00:35:11;7.07;;;3.11;;
60336;SDS011;46978;50.288;28.624;2023-12-14T00:36:17;9.00;;;3.40;;
60336;SDS011;46978;50.288;28.624;2023-12-14T00:37:20;3.38;;;1.89;;
60336;SDS011;46978;50.288;28.624;2023-12-14T00:38:21;3.09;;;1.71;;
60336;SDS011;46978;50.288;28.624;2023-12-14T00:39:23;5.28;;;2.24;;
60336;SDS011;46978;50.288;28.624;2023-12-14T00:40:26;8.68;;;3.94;;
60336;SDS011;46978;50.288;28.624;2023-12-14T00:41:28;6.14;;;3.46;;
60336;SDS011;46978;50.288;28.624;2023-12-14T00:42:29;5.96;;;2.76;;
60336;SDS011;46978;50.288;28.624;2023-12-14T00:43:31;5.37;;;2.83;;
60336;SDS011;46978;50.288;28.624;2023-12-14T00:44:33;4.65;;;2.24;;
60336;SDS011;46978;50.288;28.624;2023-12-14T00:45:34;3.56;;;1.99;;
60336;SDS011;46978;50.288;28.624;2023-12-14T00:46:36;4.58;;;2.30;;
60336;SDS011;46978;50.288;28.624;2023-12-14T00:47:38;3.76;;;1.90;;
60336;SDS011;46978;50.288;28.624;2023-12-14T00:48:39;7.52;;;3.63;;
60336;SDS011;46978;50.288;28.624;2023-12-14T00:49:41;5.94;;;2.69;;
60336;SDS011;46978;50.288;28.624;2023-12-14T00:50:43;7.46;;;3.23;;
60336;SDS011;46978;50.288;28.624;2023-12-14T00:51:45;3.51;;;1.88;;
60336;SDS011;46978;50.288;28.624;2023-12-14T00:52:46;8.14;;;3.77;;
60336;SDS011;46978;50.288;28.624;2023-12-14T00:53:48;7.57;;;3.08;;
60336;SDS011;46978;50.288;28.624;2023-12-14T00:54:50;4.71;;;1.91;;
60336;SDS011;46978;50.288;28.624;2023-12-14T00:55:51;4.96;;;2.19;;
60336;SDS011;46978;50.288;28.624;2023-12-14T00:56:53;4.07;;;1.88;;
60336;SDS011;46978;50.288;28.624;2023-12-14T00:57:55;3.28;;;1.90;;
60336;SDS011;46978;50.288;28.624;2023-12-14T00:58:57;6.17;;;2.71;;
60336;SDS011;46978;50.288;28.624;2023-12-14T00:59:58;5.14;;;2.23;;
60336;SDS011;46978;50.288;28.624;2023-12-14T01:01:00;3.23;;;1.95;;
60336;SDS011;46978;50.288;28.624;2023-12-14T01:02:02;2.39;;;1.43;;
60336;SDS011;46978;50.288;28.624;2023-12-14T01:03:04;4.95;;;2.13;;
60336;SDS011;46978;50.288;28.624;2023-12-14T01:04:05;6.08;;;2.62;;
60336;SDS011;46978;50.288;28.624;2023-12-14T01:05:07;7.53;;;2.99;;
60336;SDS011;46978;50.288;28.624;2023-12-14T01:06:10;4.54;;;2.24;;
60336;SDS011;46978;50.288;28.624;2023-12-14T01:07:12;4.57;;;2.41;;
60336;SDS011;46978;50.288;28.624;2023-12-14T01:08:14;7.32;;;2.82;;
60336;SDS011;46978;50.288;28.624;2023-12-14T01:09:15;5.40;;;2.27;;
60336;SDS011;46978;50.288;28.624;2023-12-14T01:10:17;3.24;;;1.96;;
60336;SDS011;46978;50.288;28.624;2023-12-14T01:11:19;5.24;;;2.70;;
60336;SDS011;46978;50.288;28.624;2023-12-14T01:12:21;3.33;;;1.96;;
60336;SDS011;46978;50.288;28.624;2023-12-14T01:13:22;3.64;;;1.58;;
60336;SDS011;46978;50.288;28.624;2023-12-14T01:14:24;3.14;;;1.63;;
60336;SDS011;46978;50.288;28.624;2023-12-14T01:15:26;3.01;;;1.69;;
60336;SDS011;46978;50.288;28.624;2023-12-14T01:16:29;5.12;;;2.58;;
60336;SDS011;46978;50.288;28.624;2023-12-14T01:17:31;5.74;;;2.46;;
60336;SDS011;46978;50.288;28.624;2023-12-14T01:18:32;3.41;;;1.58;;
60336;SDS011;46978;50.288;28.624;2023-12-14T01:19:34;5.19;;;1.97;;
60336;SDS011;46978;50.288;28.624;2023-12-14T01:20:36;4.87;;;2.18;;
60336;SDS011;46978;50.288;28.624;2023-12-14T01:21:37;4.04;;;1.80;;
60336;SDS011;46978;50.288;28.624;2023-12-14T01:22:39;3.29;;;1.64;;
60336;SDS011;46978;50.288;28.624;2023-12-14T01:23:41;4.27;;;2.08;;
60336;SDS011;46978;50.288;28.624;2023-12-14T01:24:42;2.81;;;1.40;;
60336;SDS011;46978;50.288;28.624;2023-12-14T01:25:44;3.90;;;1.55;;
60336;SDS011;46978;50.288;28.624;2023-12-14T01:26:46;3.89;;;1.82;;
60336;SDS011;46978;50.288;28.624;2023-12-14T01:27:47;3.50;;;1.69;;
60336;SDS011;46978;50.288;28.624;2023-12-14T01:28:49;4.05;;;1.91;;
60336;SDS011;46978;50.288;28.624;2023-12-14T01:29:51;3.85;;;1.63;;
60336;SDS011;46978;50.288;28.624;2023-12-14T01:30:53;4.09;;;1.87;;
60336;SDS011;46978;50.288;28.624;2023-12-14T01:31:55;3.72;;;1.40;;
60336;SDS011;46978;50.288;28.624;2023-12-14T01:32:56;3.01;;;1.52;;
60336;SDS011;46978;50.288;28.624;2023-12-14T01:33:58;2.39;;;1.27;;
60336;SDS011;46978;50.288;28.624;2023-12-14T01:35:00;3.68;;;1.72;;
60336;SDS011;46978;50.288;28.624;2023-12-14T01:36:02;3.75;;;1.61;;
60336;SDS011;46978;50.288;28.624;2023-12-14T01:37:04;4.94;;;2.02;;
60336;SDS011;46978;50.288;28.624;2023-12-14T01:38:06;4.69;;;1.93;;
60336;SDS011;46978;50.288;28.624;2023-12-14T01:39:07;3.74;;;1.96;;
60336;SDS011;46978;50.288;28.624;2023-12-14T01:40:10;3.33;;;1.91;;
60336;SDS011;46978;50.288;28.624;2023-12-14T01:41:13;3.63;;;1.70;;
60336;SDS011;46978;50.288;28.624;2023-12-14T01:42:15;2.92;;;1.37;;
60336;SDS011;46978;50.288;28.624;2023-12-14T01:43:16;4.04;;;1.60;;
60336;SDS011;46978;50.288;28.624;2023-12-14T01:44:18;3.61;;;1.57;;
60336;SDS011;46978;50.288;28.624;2023-12-14T01:45:19;4.34;;;2.01;;
60336;SDS011;46978;50.288;28.624;2023-12-14T01:46:21;3.38;;;1.96;;
60336;SDS011;46978;50.288;28.624;2023-12-14T01:47:23;3.85;;;1.66;;
60336;SDS011;46978;50.288;28.624;2023-12-14T01:48:25;5.06;;;2.04;;
60336;SDS011;46978;50.288;28.624;2023-12-14T01:49:26;4.10;;;2.53;;
60336;SDS011;46978;50.288;28.624;2023-12-14T01:50:30;5.72;;;2.49;;
60336;SDS011;46978;50.288;28.624;2023-12-14T01:51:32;3.70;;;2.01;;
60336;SDS011;46978;50.288;28.624;2023-12-14T01:52:33;5.36;;;2.04;;
60336;SDS011;46978;50.288;28.624;2023-12-14T01:53:35;3.11;;;1.77;;
60336;SDS011;46978;50.288;28.624;2023-12-14T01:54:37;6.06;;;2.41;;
60336;SDS011;46978;50.288;28.624;2023-12-14T01:55:38;5.10;;;2.39;;
60336;SDS011;46978;50.288;28.624;2023-12-14T01:56:42;4.20;;;2.27;;
60336;SDS011;46978;50.288;28.624;2023-12-14T01:57:43;3.75;;;1.76;;
60336;SDS011;46978;50.288;28.624;2023-12-14T01:58:45;4.30;;;1.67;;
60336;SDS011;46978;50.288;28.624;2023-12-14T01:59:47;3.79;;;2.09;;
60336;SDS011;46978;50.288;28.624;2023-12-14T02:02:04;5.84;;;2.58;;
60336;SDS011;46978;50.288;28.624;2023-12-14T02:03:05;4.79;;;2.35;;
60336;SDS011;46978;50.288;28.624;2023-12-14T02:04:07;5.55;;;2.87;;
60336;SDS011;46978;50.288;28.624;2023-12-14T02:05:09;10.95;;;4.61;;
60336;SDS011;46978;50.288;28.624;2023-12-14T02:06:12;5.59;;;2.71;;
60336;SDS011;46978;50.288;28.624;2023-12-14T02:07:13;6.71;;;3.14;;
60336;SDS011;46978;50.288;28.624;2023-12-14T02:08:15;6.21;;;3.59;;
60336;SDS011;46978;50.288;28.624;2023-12-14T02:09:17;6.81;;;3.44;;
60336;SDS011;46978;50.288;28.624;2023-12-14T02:10:19;5.48;;;3.31;;
60336;SDS011;46978;50.288;28.624;2023-12-14T02:11:21;6.29;;;3.45;;
60336;SDS011;46978;50.288;28.624;2023-12-14T02:12:23;3.86;;;2.45;;
60336;SDS011;46978;50.288;28.624;2023-12-14T02:13:24;4.24;;;2.50;;
60336;SDS011;46978;50.288;28.624;2023-12-14T02:14:26;4.46;;;2.76;;
60336;SDS011;46978;50.288;28.624;2023-12-14T02:15:28;3.93;;;2.53;;
60336;SDS011;46978;50.288;28.624;2023-12-14T02:16:30;3.70;;;2.30;;
60336;SDS011;46978;50.288;28.624;2023-12-14T02:17:32;4.06;;;2.17;;
60336;SDS011;46978;50.288;28.624;2023-12-14T02:18:33;3.97;;;2.36;;
60336;SDS011;46978;50.288;28.624;2023-12-14T02:19:35;3.49;;;1.77;;
60336;SDS011;46978;50.288;28.624;2023-12-14T02:20:37;3.80;;;2.27;;
60336;SDS011;46978;50.288;28.624;2023-12-14T02:21:39;2.95;;;2.07;;
60336;SDS011;46978;50.288;28.624;2023-12-14T02:22:53;2.45;;;1.64;;
60336;SDS011;46978;50.288;28.624;2023-12-14T02:23:56;3.90;;;2.11;;
60336;SDS011;46978;50.288;28.624;2023-12-14T02:24:57;3.46;;;2.05;;
60336;SDS011;46978;50.288;28.624;2023-12-14T02:25:59;3.24;;;1.81;;
60336;SDS011;46978;50.288;28.624;2023-12-14T02:27:01;4.04;;;1.89;;
60336;SDS011;46978;50.288;28.624;2023-12-14T02:28:02;3.06;;;1.84;;
60336;SDS011;46978;50.288;28.624;2023-12-14T02:29:04;2.70;;;1.69;;
60336;SDS011;46978;50.288;28.624;2023-12-14T02:30:08;2.55;;;1.50;;
60336;SDS011;46978;50.288;28.624;2023-12-14T02:31:10;3.42;;;1.72;;
60336;SDS011;46978;50.288;28.624;2023-12-14T02:32:12;2.68;;;1.43;;
60336;SDS011;46978;50.288;28.624;2023-12-14T02:33:14;2.60;;;1.35;;
60336;SDS011;46978;50.288;28.624;2023-12-14T02:34:16;3.15;;;1.48;;
60336;SDS011;46978;50.288;28.624;2023-12-14T02:35:18;3.23;;;1.81;;
60336;SDS011;46978;50.288;28.624;2023-12-14T02:36:21;3.39;;;1.99;;
60336;SDS011;46978;50.288;28.624;2023-12-14T02:37:22;4.97;;;2.34;;
60336;SDS011;46978;50.288;28.624;2023-12-14T02:38:24;4.85;;;2.71;;
60336;SDS011;46978;50.288;28.624;2023-12-14T02:39:26;5.02;;;2.71;;
60336;SDS011;46978;50.288;28.624;2023-12-14T02:40:29;5.56;;;2.78;;
60336;SDS011;46978;50.288;28.624;2023-12-14T02:41:30;5.41;;;2.80;;
60336;SDS011;46978;50.288;28.624;2023-12-14T02:42:32;7.49;;;3.79;;
60336;SDS011;46978;50.288;28.624;2023-12-14T02:43:34;6.42;;;3.12;;
60336;SDS011;46978;50.288;28.624;2023-12-14T02:44:36;7.26;;;3.34;;
60336;SDS011;46978;50.288;28.624;2023-12-14T02:45:37;6.51;;;2.76;;
60336;SDS011;46978;50.288;28.624;2023-12-14T02:46:39;4.41;;;2.45;;
60336;SDS011;46978;50.288;28.624;2023-12-14T02:47:41;5.12;;;2.78;;
60336;SDS011;46978;50.288;28.624;2023-12-14T02:48:43;5.04;;;2.86;;
60336;SDS011;46978;50.288;28.624;2023-12-14T02:49:44;3.82;;;1.94;;
60336;SDS011;46978;50.288;28.624;2023-12-14T02:50:48;4.16;;;2.42;;
60336;SDS011;46978;50.288;28.624;2023-12-14T02:51:49;4.82;;;2.53;;
60336;SDS011;46978;50.288;28.624;2023-12-14T02:52:51;4.76;;;2.21;;
60336;SDS011;46978;50.288;28.624;2023-12-14T02:53:53;5.11;;;2.81;;
60336;SDS011;46978;50.288;28.624;2023-12-14T02:54:54;4.13;;;2.59;;
60336;SDS011;46978;50.288;28.624;2023-12-14T02:55:56;4.09;;;2.32;;
60336;SDS011;46978;50.288;28.624;2023-12-14T02:56:58;4.54;;;2.42;;
60336;SDS011;46978;50.288;28.624;2023-12-14T02:57:59;4.87;;;2.56;;
60336;SDS011;46978;50.288;28.624;2023-12-14T02:59:01;5.01;;;2.67;;
60336;SDS011;46978;50.288;28.624;2023-12-14T03:00:03;4.56;;;2.89;;
60336;SDS011;46978;50.288;28.624;2023-12-14T03:01:06;4.39;;;2.42;;
60336;SDS011;46978;50.288;28.624;2023-12-14T03:02:07;3.54;;;2.07;;
60336;SDS011;46978;50.288;28.624;2023-12-14T03:03:09;3.39;;;1.91;;
60336;SDS011;46978;50.288;28.624;2023-12-14T03:04:11;3.25;;;2.07;;
60336;SDS011;46978;50.288;28.624;2023-12-14T03:05:12;2.65;;;1.66;;
60336;SDS011;46978;50.288;28.624;2023-12-14T03:06:15;3.63;;;2.01;;
60336;SDS011;46978;50.288;28.624;2023-12-14T03:07:16;3.64;;;2.15;;
60336;SDS011;46978;50.288;28.624;2023-12-14T03:08:18;4.41;;;2.23;;
60336;SDS011;46978;50.288;28.624;2023-12-14T03:09:20;8.52;;;3.64;;
60336;SDS011;46978;50.288;28.624;2023-12-14T03:10:23;6.62;;;3.30;;
60336;SDS011;46978;50.288;28.624;2023-12-14T03:11:25;6.48;;;2.96;;
60336;SDS011;46978;50.288;28.624;2023-12-14T03:12:27;8.05;;;4.08;;
60336;SDS011;46978;50.288;28.624;2023-12-14T03:13:29;7.31;;;3.06;;
60336;SDS011;46978;50.288;28.624;2023-12-14T03:14:31;5.29;;;2.43;;
60336;SDS011;46978;50.288;28.624;2023-12-14T03:15:34;4.25;;;2.10;;
60336;SDS011;46978;50.288;28.624;2023-12-14T03:16:37;3.20;;;1.85;;
60336;SDS011;46978;50.288;28.624;2023-12-14T03:17:38;2.81;;;1.65;;
60336;SDS011;46978;50.288;28.624;2023-12-14T03:18:40;4.94;;;1.93;;
60336;SDS011;46978;50.288;28.624;2023-12-14T03:19:42;2.66;;;1.49;;
60336;SDS011;46978;50.288;28.624;2023-12-14T03:20:44;3.15;;;1.48;;
60336;SDS011;46978;50.288;28.624;2023-12-14T03:21:46;2.59;;;1.28;;
60336;SDS011;46978;50.288;28.624;2023-12-14T03:22:47;2.36;;;1.40;;
60336;SDS011;46978;50.288;28.624;2023-12-14T03:23:49;2.96;;;1.56;;
60336;SDS011;46978;50.288;28.624;2023-12-14T03:24:51;2.78;;;1.42;;
60336;SDS011;46978;50.288;28.624;2023-12-14T03:25:52;2.37;;;1.40;;
60336;SDS011;46978;50.288;28.624;2023-12-14T03:26:55;2.67;;;1.41;;
60336;SDS011;46978;50.288;28.624;2023-12-14T03:27:56;2.96;;;1.48;;
60336;SDS011;46978;50.288;28.624;2023-12-14T03:28:58;2.73;;;1.55;;
60336;SDS011;46978;50.288;28.624;2023-12-14T03:30:00;2.82;;;1.37;;
60336;SDS011;46978;50.288;28.624;2023-12-14T03:31:01;2.53;;;1.38;;
60336;SDS011;46978;50.288;28.624;2023-12-14T03:32:03;2.31;;;1.30;;
60336;SDS011;46978;50.288;28.624;2023-12-14T03:33:05;2.16;;;1.28;;
60336;SDS011;46978;50.288;28.624;2023-12-14T03:34:07;2.59;;;1.32;;
60336;SDS011;46978;50.288;28.624;2023-12-14T03:35:09;2.24;;;1.19;;
60336;SDS011;46978;50.288;28.624;2023-12-14T03:36:12;2.33;;;1.29;;
60336;SDS011;46978;50.288;28.624;2023-12-14T03:37:14;2.58;;;1.34;;
60336;SDS011;46978;50.288;28.624;2023-12-14T03:38:16;2.94;;;1.59;;
60336;SDS011;46978;50.288;28.624;2023-12-14T03:39:17;2.22;;;1.39;;
60336;SDS011;46978;50.288;28.624;2023-12-14T03:40:20;3.77;;;2.33;;
60336;SDS011;46978;50.288;28.624;2023-12-14T03:41:22;3.96;;;2.14;;
60336;SDS011;46978;50.288;28.624;2023-12-14T03:42:23;3.48;;;2.02;;
60336;SDS011;46978;50.288;28.624;2023-12-14T03:43:25;3.33;;;2.32;;
60336;SDS011;46978;50.288;28.624;2023-12-14T03:44:32;3.88;;;2.26;;
60336;SDS011;46978;50.288;28.624;2023-12-14T03:45:34;3.11;;;1.73;;
60336;SDS011;46978;50.288;28.624;2023-12-14T03:46:36;3.31;;;2.20;;
60336;SDS011;46978;50.288;28.624;2023-12-14T03:47:38;3.42;;;2.01;;
60336;SDS011;46978;50.288;28.624;2023-12-14T03:48:40;3.34;;;2.01;;
60336;SDS011;46978;50.288;28.624;2023-12-14T03:49:41;3.24;;;1.94;;
60336;SDS011;46978;50.288;28.624;2023-12-14T03:50:44;3.33;;;1.93;;
60336;SDS011;46978;50.288;28.624;2023-12-14T03:51:46;2.82;;;1.67;;
60336;SDS011;46978;50.288;28.624;2023-12-14T03:52:47;2.27;;;1.29;;
60336;SDS011;46978;50.288;28.624;2023-12-14T03:53:49;3.02;;;1.49;;
60336;SDS011;46978;50.288;28.624;2023-12-14T03:54:51;3.23;;;2.14;;
60336;SDS011;46978;50.288;28.624;2023-12-14T03:55:52;2.63;;;1.51;;
60336;SDS011;46978;50.288;28.624;2023-12-14T03:56:55;2.81;;;1.63;;
60336;SDS011;46978;50.288;28.624;2023-12-14T03:57:57;2.83;;;1.68;;
60336;SDS011;46978;50.288;28.624;2023-12-14T03:58:58;2.50;;;1.41;;
60336;SDS011;46978;50.288;28.624;2023-12-14T04:00:00;2.92;;;1.47;;
60336;SDS011;46978;50.288;28.624;2023-12-14T04:01:02;2.47;;;1.46;;
60336;SDS011;46978;50.288;28.624;2023-12-14T04:02:04;1.96;;;1.11;;
60336;SDS011;46978;50.288;28.624;2023-12-14T04:03:05;4.01;;;1.37;;
60336;SDS011;46978;50.288;28.624;2023-12-14T04:04:07;2.70;;;1.18;;
60336;SDS011;46978;50.288;28.624;2023-12-14T04:05:09;3.09;;;1.48;;
60336;SDS011;46978;50.288;28.624;2023-12-14T04:06:13;2.45;;;1.34;;
60336;SDS011;46978;50.288;28.624;2023-12-14T04:07:15;2.61;;;1.21;;
60336;SDS011;46978;50.288;28.624;2023-12-14T04:08:16;2.21;;;1.26;;
60336;SDS011;46978;50.288;28.624;2023-12-14T04:09:18;2.21;;;1.20;;
60336;SDS011;46978;50.288;28.624;2023-12-14T04:10:21;2.62;;;1.46;;
60336;SDS011;46978;50.288;28.624;2023-12-14T04:11:23;3.00;;;1.58;;
60336;SDS011;46978;50.288;28.624;2023-12-14T04:12:25;3.06;;;1.26;;
60336;SDS011;46978;50.288;28.624;2023-12-14T04:13:26;2.49;;;1.45;;
60336;SDS011;46978;50.288;28.624;2023-12-14T04:14:28;2.11;;;1.11;;
60336;SDS011;46978;50.288;28.624;2023-12-14T04:15:30;3.02;;;1.39;;
60336;SDS011;46978;50.288;28.624;2023-12-14T04:16:31;3.40;;;1.74;;
60336;SDS011;46978;50.288;28.624;2023-12-14T04:17:33;3.21;;;1.43;;
60336;SDS011;46978;50.288;28.624;2023-12-14T04:18:35;3.49;;;1.58;;
60336;SDS011;46978;50.288;28.624;2023-12-14T04:19:41;3.58;;;2.32;;
60336;SDS011;46978;50.288;28.624;2023-12-14T04:20:41;3.25;;;1.64;;
60336;SDS011;46978;50.288;28.624;2023-12-14T04:21:43;3.19;;;1.69;;
60336;SDS011;46978;50.288;28.624;2023-12-14T04:22:44;3.53;;;1.61;;
60336;SDS011;46978;50.288;28.624;2023-12-14T04:23:46;4.26;;;2.14;;
60336;SDS011;46978;50.288;28.624;2023-12-14T04:24:48;5.47;;;2.76;;
60336;SDS011;46978;50.288;28.624;2023-12-14T04:25:50;7.60;;;3.44;;
60336;SDS011;46978;50.288;28.624;2023-12-14T04:26:52;7.62;;;3.62;;
60336;SDS011;46978;50.288;28.624;2023-12-14T04:27:54;5.34;;;2.52;;
60336;SDS011;46978;50.288;28.624;2023-12-14T04:28:55;6.76;;;3.13;;
60336;SDS011;46978;50.288;28.624;2023-12-14T04:29:57;8.53;;;3.96;;
60336;SDS011;46978;50.288;28.624;2023-12-14T04:30:59;9.60;;;5.11;;
60336;SDS011;46978;50.288;28.624;2023-12-14T04:32:01;9.73;;;4.34;;
60336;SDS011;46978;50.288;28.624;2023-12-14T04:33:02;17.54;;;7.47;;
60336;SDS011;46978;50.288;28.624;2023-12-14T04:34:04;11.19;;;6.04;;
60336;SDS011;46978;50.288;28.624;2023-12-14T04:35:06;10.46;;;5.61;;
60336;SDS011;46978;50.288;28.624;2023-12-14T04:36:10;9.28;;;4.63;;
60336;SDS011;46978;50.288;28.624;2023-12-14T04:37:12;9.51;;;5.06;;
60336;SDS011;46978;50.288;28.624;2023-12-14T04:38:14;8.85;;;4.84;;
60336;SDS011;46978;50.288;28.624;2023-12-14T04:39:15;7.72;;;4.93;;
60336;SDS011;46978;50.288;28.624;2023-12-14T04:40:17;6.91;;;4.01;;
60336;SDS011;46978;50.288;28.624;2023-12-14T04:41:19;8.12;;;4.74;;
60336;SDS011;46978;50.288;28.624;2023-12-14T04:42:21;7.75;;;4.56;;
60336;SDS011;46978;50.288;28.624;2023-12-14T04:43:22;9.68;;;5.34;;
60336;SDS011;46978;50.288;28.624;2023-12-14T04:44:24;7.44;;;4.14;;
60336;SDS011;46978;50.288;28.624;2023-12-14T04:45:26;6.19;;;3.86;;
60336;SDS011;46978;50.288;28.624;2023-12-14T04:46:28;6.27;;;3.64;;
60336;SDS011;46978;50.288;28.624;2023-12-14T04:47:29;7.20;;;4.09;;
60336;SDS011;46978;50.288;28.624;2023-12-14T04:48:31;7.93;;;4.04;;
60336;SDS011;46978;50.288;28.624;2023-12-14T04:49:33;5.89;;;3.71;;
60336;SDS011;46978;50.288;28.624;2023-12-14T04:50:35;6.64;;;3.58;;
60336;SDS011;46978;50.288;28.624;2023-12-14T04:51:37;7.79;;;4.86;;
60336;SDS011;46978;50.288;28.624;2023-12-14T04:52:38;12.83;;;7.53;;
60336;SDS011;46978;50.288;28.624;2023-12-14T04:53:42;7.79;;;4.39;;
60336;SDS011;46978;50.288;28.624;2023-12-14T04:54:44;6.29;;;3.46;;
60336;SDS011;46978;50.288;28.624;2023-12-14T04:55:46;6.21;;;3.47;;
60336;SDS011;46978;50.288;28.624;2023-12-14T04:56:48;5.57;;;3.35;;
60336;SDS011;46978;50.288;28.624;2023-12-14T04:57:49;5.21;;;2.89;;
60336;SDS011;46978;50.288;28.624;2023-12-14T04:58:51;4.54;;;3.22;;
60336;SDS011;46978;50.288;28.624;2023-12-14T04:59:52;7.20;;;3.35;;
60336;SDS011;46978;50.288;28.624;2023-12-14T05:00:54;5.65;;;3.16;;
60336;SDS011;46978;50.288;28.624;2023-12-14T05:01:56;5.89;;;3.86;;
60336;SDS011;46978;50.288;28.624;2023-12-14T05:02:57;5.57;;;3.41;;
60336;SDS011;46978;50.288;28.624;2023-12-14T05:03:59;5.32;;;3.54;;
60336;SDS011;46978;50.288;28.624;2023-12-14T05:05:00;5.16;;;3.05;;
60336;SDS011;46978;50.288;28.624;2023-12-14T05:06:02;6.33;;;3.50;;
60336;SDS011;46978;50.288;28.624;2023-12-14T05:07:04;6.90;;;4.03;;
60336;SDS011;46978;50.288;28.624;2023-12-14T05:08:06;7.48;;;4.19;;
60336;SDS011;46978;50.288;28.624;2023-12-14T05:09:08;7.07;;;4.11;;
60336;SDS011;46978;50.288;28.624;2023-12-14T05:10:10;6.71;;;4.07;;
60336;SDS011;46978;50.288;28.624;2023-12-14T05:11:12;6.86;;;4.01;;
60336;SDS011;46978;50.288;28.624;2023-12-14T05:12:14;7.25;;;3.71;;
60336;SDS011;46978;50.288;28.624;2023-12-14T05:13:16;15.97;;;8.18;;
60336;SDS011;46978;50.288;28.624;2023-12-14T05:14:17;14.43;;;7.39;;
60336;SDS011;46978;50.288;28.624;2023-12-14T05:15:19;14.78;;;6.89;;
60336;SDS011;46978;50.288;28.624;2023-12-14T05:16:23;10.94;;;5.32;;
60336;SDS011;46978;50.288;28.624;2023-12-14T05:17:25;10.88;;;5.47;;
60336;SDS011;46978;50.288;28.624;2023-12-14T05:18:26;12.71;;;6.46;;
60336;SDS011;46978;50.288;28.624;2023-12-14T05:19:28;33.25;;;14.88;;
60336;SDS011;46978;50.288;28.624;2023-12-14T05:20:32;34.91;;;15.58;;
60336;SDS011;46978;50.288;28.624;2023-12-14T05:21:35;33.00;;;14.95;;
60336;SDS011;46978;50.288;28.624;2023-12-14T05:22:36;58.58;;;26.47;;
60336;SDS011;46978;50.288;28.624;2023-12-14T05:23:38;25.54;;;12.21;;
60336;SDS011;46978;50.288;28.624;2023-12-14T05:24:40;16.72;;;8.20;;
60336;SDS011;46978;50.288;28.624;2023-12-14T05:25:41;8.82;;;4.57;;
60336;SDS011;46978;50.288;28.624;2023-12-14T05:26:44;14.03;;;7.82;;
60336;SDS011;46978;50.288;28.624;2023-12-14T05:27:46;16.81;;;8.81;;
60336;SDS011;46978;50.288;28.624;2023-12-14T05:28:47;18.39;;;8.88;;
60336;SDS011;46978;50.288;28.624;2023-12-14T05:29:49;10.02;;;5.04;;
60336;SDS011;46978;50.288;28.624;2023-12-14T05:30:51;11.18;;;5.93;;
60336;SDS011;46978;50.288;28.624;2023-12-14T05:31:53;26.99;;;12.32;;
60336;SDS011;46978;50.288;28.624;2023-12-14T05:32:54;19.08;;;9.41;;
60336;SDS011;46978;50.288;28.624;2023-12-14T05:33:56;18.18;;;9.02;;
60336;SDS011;46978;50.288;28.624;2023-12-14T05:34:57;24.74;;;12.29;;
60336;SDS011;46978;50.288;28.624;2023-12-14T05:35:59;10.63;;;6.53;;
60336;SDS011;46978;50.288;28.624;2023-12-14T05:37:01;16.06;;;6.71;;
60336;SDS011;46978;50.288;28.624;2023-12-14T05:38:03;17.53;;;7.45;;
60336;SDS011;46978;50.288;28.624;2023-12-14T05:39:04;15.13;;;7.72;;
60336;SDS011;46978;50.288;28.624;2023-12-14T05:40:07;14.19;;;7.57;;
60336;SDS011;46978;50.288;28.624;2023-12-14T05:41:10;17.92;;;9.11;;
60336;SDS011;46978;50.288;28.624;2023-12-14T05:42:15;15.33;;;7.61;;
60336;SDS011;46978;50.288;28.624;2023-12-14T05:43:19;14.20;;;8.01;;
60336;SDS011;46978;50.288;28.624;2023-12-14T05:44:20;20.57;;;9.15;;
60336;SDS011;46978;50.288;28.624;2023-12-14T05:45:22;18.85;;;9.08;;
60336;SDS011;46978;50.288;28.624;2023-12-14T05:46:24;28.26;;;13.37;;
60336;SDS011;46978;50.288;28.624;2023-12-14T05:47:26;22.71;;;11.44;;
60336;SDS011;46978;50.288;28.624;2023-12-14T05:48:28;17.09;;;8.66;;
60336;SDS011;46978;50.288;28.624;2023-12-14T05:49:30;13.64;;;7.73;;
60336;SDS011;46978;50.288;28.624;2023-12-14T05:50:33;15.50;;;8.08;;
60336;SDS011;46978;50.288;28.624;2023-12-14T05:51:35;16.01;;;8.11;;
60336;SDS011;46978;50.288;28.624;2023-12-14T05:52:36;14.69;;;7.62;;
60336;SDS011;46978;50.288;28.624;2023-12-14T05:53:38;12.87;;;6.79;;
60336;SDS011;46978;50.288;28.624;2023-12-14T05:54:40;12.34;;;6.66;;
60336;SDS011;46978;50.288;28.624;2023-12-14T05:55:42;15.49;;;7.22;;
60336;SDS011;46978;50.288;28.624;2023-12-14T05:56:44;12.23;;;7.33;;
60336;SDS011;46978;50.288;28.624;2023-12-14T05:57:46;9.22;;;5.23;;
60336;SDS011;46978;50.288;28.624;2023-12-14T05:58:48;9.64;;;5.26;;
60336;SDS011;46978;50.288;28.624;2023-12-14T05:59:50;8.44;;;4.39;;
60336;SDS011;46978;50.288;28.624;2023-12-14T06:00:52;10.76;;;5.85;;
60336;SDS011;46978;50.288;28.624;2023-12-14T06:01:57;14.16;;;7.38;;
60336;SDS011;46978;50.288;28.624;2023-12-14T06:02:59;12.43;;;6.69;;
60336;SDS011;46978;50.288;28.624;2023-12-14T06:04:01;10.09;;;4.70;;
60336;SDS011;46978;50.288;28.624;2023-12-14T06:05:03;9.43;;;5.36;;
60336;SDS011;46978;50.288;28.624;2023-12-14T06:06:05;9.97;;;5.03;;
60336;SDS011;46978;50.288;28.624;2023-12-14T06:07:07;9.91;;;5.40;;
60336;SDS011;46978;50.288;28.624;2023-12-14T06:08:09;12.86;;;6.46;;
60336;SDS011;46978;50.288;28.624;2023-12-14T06:09:10;13.08;;;6.75;;